Time;durP1;ratioP1;P1;durP2;ratioP2;P2;SDS_P1;SDS_P2;PMS_P1;PMS_P2;Temp;Humidity;BMP_temperature;BMP_pressure;BME280_temperature;BME280_humidity;BME280_pressure;Samples;Min_cycle;Max_cycle;Signal;HPM_P1;HPM_P2
2023/09/26 00:00:08;;;;;;;11.93;5.93;;;13.00;99.90;;;;;;4935546;29;20436;-46
2023/09/26 00:02:35;;;;;;;7.68;5.72;;;13.00;99.90;;;;;;4935373;29;20035;-45
2023/09/26 00:05:03;;;;;;;8.15;6.03;;;13.10;99.90;;;;;;4935256;29;20024;-45
2023/09/26 00:07:28;;;;;;;6.78;5.38;;;13.20;99.90;;;;;;4934966;29;20039;-52
2023/09/26 00:09:55;;;;;;;6.78;6.18;;;13.20;99.90;;;;;;4934966;29;20502;-44
2023/09/26 00:12:21;;;;;;;7.78;5.50;;;13.20;99.90;;;;;;4935127;29;20035;-46
2023/09/26 00:14:47;;;;;;;9.95;6.15;;;13.20;99.90;;;;;;4934863;29;20015;-50
2023/09/26 00:17:12;;;;;;;8.20;5.72;;;13.20;99.90;;;;;;4935091;29;20063;-48
2023/09/26 00:19:38;;;;;;;5.85;5.35;;;13.20;99.90;;;;;;4934994;29;20110;-44
2023/09/26 00:22:03;;;;;;;13.07;6.10;;;13.10;99.90;;;;;;4933421;29;20491;-46
2023/09/26 00:24:29;;;;;;;7.03;5.90;;;13.00;99.90;;;;;;4934591;29;20027;-45
2023/09/26 00:26:54;;;;;;;7.43;5.68;;;12.90;99.90;;;;;;4933453;29;20455;-48
2023/09/26 00:29:20;;;;;;;6.35;5.68;;;12.90;99.90;;;;;;4934498;29;20437;-47
2023/09/26 00:31:45;;;;;;;7.55;5.68;;;13.00;99.90;;;;;;4934708;29;20050;-49
2023/09/26 00:34:11;;;;;;;16.85;12.63;;;13.00;99.90;;;;;;4934596;29;20498;-47
2023/09/26 00:36:36;;;;;;;15.38;11.73;;;13.00;99.90;;;;;;4933720;29;20024;-45
2023/09/26 00:39:02;;;;;;;21.92;9.85;;;13.10;99.90;;;;;;4933387;29;20050;-45
2023/09/26 00:41:27;;;;;;;10.95;7.03;;;13.20;99.90;;;;;;4934731;29;20031;-50
2023/09/26 00:43:53;;;;;;;7.40;6.10;;;13.20;99.90;;;;;;4934286;29;20110;-45
2023/09/26 00:46:18;;;;;;;7.68;5.75;;;13.20;99.90;;;;;;4980356;23;20050;-44
2023/09/26 00:48:44;;;;;;;7.20;5.90;;;13.20;99.90;;;;;;4973117;28;20560;-45
2023/09/26 00:51:10;;;;;;;6.80;5.90;;;13.10;99.90;;;;;;4972918;28;20022;-48
2023/09/26 00:53:39;;;;;;;8.35;6.10;;;13.10;99.90;;;;;;4973056;28;20027;-42
2023/09/26 00:56:07;;;;;;;10.98;6.32;;;13.00;99.90;;;;;;4972141;28;20047;-47
2023/09/26 00:58:34;;;;;;;7.82;6.70;;;13.00;99.90;;;;;;4970921;28;20183;-45
2023/09/26 01:01:00;;;;;;;7.07;6.35;;;12.90;99.90;;;;;;4972741;28;20027;-49
2023/09/26 01:03:26;;;;;;;9.55;6.95;;;12.90;99.90;;;;;;4970606;28;20027;-44
2023/09/26 01:05:51;;;;;;;7.10;6.15;;;12.80;99.90;;;;;;4971853;28;20030;-49
2023/09/26 01:08:17;;;;;;;6.65;5.65;;;12.80;99.90;;;;;;4972862;28;20027;-45
2023/09/26 01:10:43;;;;;;;6.97;6.28;;;12.70;99.90;;;;;;4972968;28;20090;-50
2023/09/26 01:13:08;;;;;;;7.45;5.43;;;12.60;99.90;;;;;;4971115;28;20031;-48
2023/09/26 01:15:38;;;;;;;6.90;6.20;;;12.60;99.90;;;;;;4971436;28;20019;-47
2023/09/26 01:18:08;;;;;;;7.13;6.40;;;12.50;99.90;;;;;;4972816;28;20027;-48
2023/09/26 01:20:34;;;;;;;10.40;6.32;;;12.60;99.90;;;;;;4972814;28;20114;-47
2023/09/26 01:23:05;;;;;;;6.55;5.85;;;12.60;99.90;;;;;;4972420;28;20372;-45
2023/09/26 01:25:32;;;;;;;10.70;6.45;;;12.60;99.90;;;;;;4972660;28;20027;-47
2023/09/26 01:28:01;;;;;;;10.88;6.22;;;12.70;99.90;;;;;;4971393;28;20121;-45
2023/09/26 01:30:27;;;;;;;7.40;6.70;;;12.70;99.90;;;;;;4972521;28;20030;-49
2023/09/26 01:32:52;;;;;;;8.57;6.60;;;12.60;99.90;;;;;;4972661;28;20101;-46
2023/09/26 01:35:18;;;;;;;7.80;6.05;;;12.60;99.90;;;;;;4974822;28;20394;-52
2023/09/26 01:37:43;;;;;;;6.55;5.95;;;12.60;99.90;;;;;;4976221;28;20026;-52
2023/09/26 01:40:11;;;;;;;8.82;6.25;;;12.50;99.90;;;;;;4976179;28;20077;-45
2023/09/26 01:42:36;;;;;;;6.57;5.90;;;12.50;99.90;;;;;;4976073;28;20558;-46
2023/09/26 01:45:02;;;;;;;10.20;6.43;;;12.50;99.90;;;;;;4976103;28;20031;-49
2023/09/26 01:47:47;;;;;;;8.25;6.55;;;12.50;99.90;;;;;;4977711;28;20038;-46
2023/09/26 01:50:14;;;;;;;9.43;6.60;;;12.50;99.90;;;;;;4977412;28;20054;-46
2023/09/26 01:52:40;;;;;;;9.07;6.70;;;12.50;99.90;;;;;;4977214;28;20053;-45
2023/09/26 01:55:07;;;;;;;6.72;6.00;;;12.50;99.90;;;;;;4977058;28;20483;-46
2023/09/26 01:57:33;;;;;;;11.45;6.20;;;12.40;99.90;;;;;;4977042;28;20025;-49
2023/09/26 02:00:01;;;;;;;9.35;6.00;;;12.40;99.90;;;;;;4975974;28;20030;-48
2023/09/26 02:02:27;;;;;;;7.20;6.18;;;12.40;99.90;;;;;;4975769;28;20089;-50
2023/09/26 02:04:52;;;;;;;6.90;5.85;;;12.30;99.90;;;;;;4970393;28;20037;-48
2023/09/26 02:07:18;;;;;;;10.40;5.72;;;12.20;99.90;;;;;;4956205;28;20027;-46
2023/09/26 02:09:43;;;;;;;6.03;5.43;;;12.20;99.90;;;;;;4956250;28;20464;-47
2023/09/26 02:12:09;;;;;;;7.32;6.05;;;12.20;99.90;;;;;;4956182;28;20035;-47
2023/09/26 02:14:34;;;;;;;6.45;5.85;;;12.20;99.90;;;;;;4956053;28;20373;-45
2023/09/26 02:17:00;;;;;;;6.72;6.00;;;12.20;99.90;;;;;;4956231;28;20034;-44
2023/09/26 02:19:25;;;;;;;7.32;6.63;;;12.30;99.90;;;;;;4955166;28;20114;-47
2023/09/26 02:21:51;;;;;;;13.60;6.57;;;12.40;99.90;;;;;;4956305;28;20031;-45
2023/09/26 02:24:16;;;;;;;8.70;6.30;;;12.40;99.90;;;;;;4955936;28;20046;-45
2023/09/26 02:26:42;;;;;;;9.90;6.40;;;12.30;99.90;;;;;;4956068;28;20023;-45
2023/09/26 02:29:07;;;;;;;13.35;8.00;;;12.30;99.90;;;;;;4955954;28;20027;-50
2023/09/26 02:31:33;;;;;;;11.02;6.05;;;12.30;99.90;;;;;;4954898;28;20402;-45
2023/09/26 02:33:58;;;;;;;7.25;6.30;;;12.30;99.90;;;;;;4955697;28;20024;-45
2023/09/26 02:36:24;;;;;;;9.60;6.63;;;12.30;99.90;;;;;;4954601;28;20020;-46
2023/09/26 02:38:49;;;;;;;10.77;6.78;;;12.30;99.90;;;;;;4955982;28;20046;-43
2023/09/26 02:41:15;;;;;;;10.38;8.40;;;12.20;99.90;;;;;;4955986;28;20102;-44
2023/09/26 02:43:40;;;;;;;15.82;10.90;;;12.30;99.90;;;;;;4955517;28;20037;-50
2023/09/26 02:46:06;;;;;;;7.63;6.85;;;12.30;99.90;;;;;;4955725;28;20047;-45
2023/09/26 02:48:31;;;;;;;7.93;7.05;;;12.30;99.90;;;;;;4955916;28;20034;-46
2023/09/26 02:51:04;;;;;;;8.95;6.68;;;12.30;99.90;;;;;;4955794;28;20028;-46
2023/09/26 02:53:29;;;;;;;7.72;6.55;;;12.30;99.90;;;;;;4955843;28;20027;-49
2023/09/26 02:55:55;;;;;;;8.23;7.10;;;12.30;99.90;;;;;;4955667;28;20020;-45
2023/09/26 02:58:20;;;;;;;7.82;6.88;;;12.30;99.90;;;;;;4955480;28;20023;-48
2023/09/26 03:00:49;;;;;;;7.75;6.78;;;12.30;99.90;;;;;;4954352;28;20170;-46
2023/09/26 03:03:14;;;;;;;11.07;6.93;;;12.20;99.90;;;;;;4955327;28;20019;-44
2023/09/26 03:05:47;;;;;;;9.68;6.35;;;12.20;99.90;;;;;;4955773;28;20050;-47
2023/09/26 03:08:13;;;;;;;11.00;7.47;;;12.10;99.90;;;;;;4955747;28;20023;-49
2023/09/26 03:10:39;;;;;;;11.07;7.57;;;12.10;99.90;;;;;;4955642;28;20523;-44
2023/09/26 03:13:05;;;;;;;8.73;7.20;;;12.10;99.90;;;;;;4954041;29;20027;-47
2023/09/26 03:15:30;;;;;;;7.60;6.95;;;12.00;99.90;;;;;;4955272;28;20031;-44
2023/09/26 03:17:56;;;;;;;11.02;7.30;;;11.90;99.90;;;;;;4955543;28;20122;-45
2023/09/26 03:20:21;;;;;;;8.48;7.03;;;11.90;99.90;;;;;;4955108;28;20027;-47
2023/09/26 03:22:47;;;;;;;8.73;7.80;;;11.90;99.90;;;;;;4955406;28;20046;-45
2023/09/26 03:25:12;;;;;;;10.70;6.90;;;11.90;99.90;;;;;;4953707;28;20027;-48
2023/09/26 03:27:38;;;;;;;10.35;7.60;;;11.90;99.90;;;;;;4955184;28;20031;-46
2023/09/26 03:30:04;;;;;;;10.88;7.20;;;11.90;99.90;;;;;;4954900;28;20023;-45
2023/09/26 03:32:29;;;;;;;9.02;7.75;;;11.80;99.90;;;;;;4954889;28;20019;-42
2023/09/26 03:34:55;;;;;;;11.60;7.15;;;11.80;99.90;;;;;;4954730;28;20477;-45
2023/09/26 03:37:20;;;;;;;9.63;7.07;;;11.80;99.90;;;;;;4954872;28;20027;-45
2023/09/26 03:39:48;;;;;;;10.15;7.60;;;11.80;99.90;;;;;;4954686;28;20122;-44
2023/09/26 03:42:14;;;;;;;10.20;7.68;;;11.80;99.90;;;;;;4954725;28;20566;-48
2023/09/26 03:44:42;;;;;;;8.90;7.57;;;11.90;99.90;;;;;;4954431;28;20126;-46
2023/09/26 03:47:08;;;;;;;9.93;8.18;;;11.90;99.90;;;;;;4954545;28;20522;-46
2023/09/26 03:49:33;;;;;;;11.50;8.07;;;11.90;99.90;;;;;;4954596;28;20067;-43
2023/09/26 03:51:59;;;;;;;7.85;6.82;;;11.90;99.90;;;;;;4954581;28;20029;-45
2023/09/26 03:54:24;;;;;;;10.23;7.13;;;11.90;99.90;;;;;;4954205;28;20103;-49
2023/09/26 03:56:50;;;;;;;10.50;7.97;;;11.80;99.90;;;;;;4954109;28;20031;-44
2023/09/26 03:59:16;;;;;;;8.45;7.57;;;11.80;99.90;;;;;;4954484;28;20131;-46
2023/09/26 04:01:42;;;;;;;11.95;8.20;;;11.70;99.90;;;;;;4954407;28;20374;-45
2023/09/26 04:04:08;;;;;;;11.02;8.43;;;11.70;99.90;;;;;;4953970;28;20487;-45
2023/09/26 04:06:34;;;;;;;8.25;7.43;;;11.60;99.90;;;;;;4954246;28;20081;-45
2023/09/26 04:09:00;;;;;;;11.15;6.72;;;11.50;99.90;;;;;;4954595;29;20167;-44
2023/09/26 04:11:26;;;;;;;7.03;6.32;;;11.50;99.90;;;;;;4954170;28;20106;-45
2023/09/26 04:13:51;;;;;;;9.20;6.90;;;11.50;99.90;;;;;;4954270;28;20034;-47
2023/09/26 04:16:17;;;;;;;9.23;7.47;;;11.50;99.90;;;;;;4955346;28;20038;-46
2023/09/26 04:18:45;;;;;;;8.30;7.38;;;11.60;99.90;;;;;;4954898;28;20030;-45
2023/09/26 04:21:11;;;;;;;8.32;7.32;;;11.60;99.90;;;;;;4954746;28;20028;-44
2023/09/26 04:23:36;;;;;;;8.98;7.05;;;11.60;99.90;;;;;;4955219;28;20079;-44
2023/09/26 04:26:14;;;;;;;8.07;6.68;;;11.60;99.90;;;;;;4955958;28;20082;-46
2023/09/26 04:28:40;;;;;;;9.32;7.68;;;11.60;99.90;;;;;;4955146;28;20483;-44
2023/09/26 04:31:16;;;;;;;10.77;7.55;;;11.60;99.90;;;;;;4954845;28;20027;-49
2023/09/26 04:33:41;;;;;;;10.82;8.20;;;11.60;99.90;;;;;;4954403;28;20023;-44
2023/09/26 04:36:07;;;;;;;7.50;6.63;;;11.60;99.90;;;;;;4954560;28;20029;-44
2023/09/26 04:38:33;;;;;;;9.48;7.35;;;11.60;99.90;;;;;;4954687;28;20058;-45
2023/09/26 04:41:02;;;;;;;9.52;8.10;;;11.60;99.90;;;;;;4954655;28;20055;-49
2023/09/26 04:43:28;;;;;;;7.70;6.88;;;11.50;99.90;;;;;;4953847;28;20055;-45
2023/09/26 04:45:54;;;;;;;9.40;7.15;;;11.60;99.90;;;;;;4954426;28;20058;-47
2023/09/26 04:48:19;;;;;;;8.30;7.50;;;11.50;99.90;;;;;;4954352;28;20023;-46
2023/09/26 04:50:45;;;;;;;10.23;7.50;;;11.50;99.90;;;;;;4953856;28;20027;-47
2023/09/26 04:53:10;;;;;;;10.23;7.18;;;11.50;99.90;;;;;;4953505;28;20027;-45
2023/09/26 04:55:36;;;;;;;8.27;7.43;;;11.60;99.90;;;;;;4953901;28;20062;-45
2023/09/26 04:58:02;;;;;;;8.50;7.38;;;11.50;99.90;;;;;;4953808;28;20513;-47
2023/09/26 05:00:29;;;;;;;8.20;7.40;;;11.60;99.90;;;;;;4953529;28;20027;-46
2023/09/26 05:02:54;;;;;;;9.23;7.82;;;11.60;99.90;;;;;;4953653;28;20031;-48
2023/09/26 05:05:20;;;;;;;10.65;8.15;;;11.50;99.90;;;;;;4953153;28;20073;-48
2023/09/26 05:07:46;;;;;;;11.38;8.15;;;11.50;99.90;;;;;;4953436;28;20554;-47
2023/09/26 05:10:12;;;;;;;8.40;7.68;;;11.50;99.90;;;;;;4951570;29;20027;-48
2023/09/26 05:12:40;;;;;;;8.82;7.05;;;11.50;99.90;;;;;;4953380;28;20479;-46
2023/09/26 05:15:17;;;;;;;10.90;8.75;;;11.30;99.90;;;;;;4953133;28;20514;-47
2023/09/26 05:17:52;;;;;;;16.30;7.72;;;11.30;99.90;;;;;;4954414;28;20047;-46
2023/09/26 05:20:18;;;;;;;8.68;7.78;;;11.30;99.90;;;;;;4953303;28;20029;-52
2023/09/26 05:22:47;;;;;;;8.80;7.95;;;11.30;99.90;;;;;;4953281;28;20027;-49
2023/09/26 05:25:12;;;;;;;8.55;7.65;;;11.30;99.90;;;;;;4953033;28;20483;-46
2023/09/26 05:27:39;;;;;;;8.93;7.53;;;11.30;99.90;;;;;;4953223;28;20035;-48
2023/09/26 05:30:09;;;;;;;13.70;8.50;;;11.30;99.90;;;;;;4953146;28;20125;-49
2023/09/26 05:32:35;;;;;;;8.15;7.35;;;11.20;99.90;;;;;;4953049;28;20039;-45
2023/09/26 05:35:01;;;;;;;8.88;8.00;;;11.20;99.90;;;;;;4953004;28;20107;-47
2023/09/26 05:37:27;;;;;;;13.30;8.38;;;11.40;99.90;;;;;;4953261;28;20034;-50
2023/09/26 05:39:53;;;;;;;12.90;8.85;;;11.30;99.90;;;;;;4953204;28;20027;-46
2023/09/26 05:42:18;;;;;;;11.25;8.15;;;11.40;99.90;;;;;;4953232;28;20027;-45
2023/09/26 05:44:44;;;;;;;9.57;8.68;;;11.40;99.90;;;;;;4953058;28;20250;-45
2023/09/26 05:47:09;;;;;;;9.23;7.60;;;11.40;99.90;;;;;;4952972;28;20099;-44
2023/09/26 05:49:35;;;;;;;8.60;7.80;;;11.40;99.90;;;;;;4953169;28;20035;-47
2023/09/26 05:52:01;;;;;;;11.90;8.40;;;11.30;99.90;;;;;;4953378;28;20030;-44
2023/09/26 05:54:30;;;;;;;13.32;8.65;;;11.40;99.90;;;;;;4952860;28;20023;-46
2023/09/26 05:56:55;;;;;;;7.95;7.15;;;11.40;99.90;;;;;;4954499;28;20103;-45
2023/09/26 05:59:21;;;;;;;9.15;7.45;;;11.40;99.90;;;;;;4955862;28;20114;-45
2023/09/26 06:01:46;;;;;;;9.27;8.35;;;11.40;99.90;;;;;;4956605;28;20031;-47
2023/09/26 06:04:11;;;;;;;8.07;7.32;;;11.50;99.90;;;;;;4955748;28;20110;-48
2023/09/26 06:06:37;;;;;;;10.35;7.78;;;11.50;99.90;;;;;;4956049;28;20027;-49
2023/09/26 06:09:03;;;;;;;12.73;7.13;;;11.60;99.90;;;;;;4954551;28;20027;-45
2023/09/26 06:11:29;;;;;;;7.60;6.90;;;11.60;99.90;;;;;;4955073;28;20023;-51
2023/09/26 06:13:54;;;;;;;12.75;7.60;;;11.70;99.90;;;;;;4953907;28;20144;-48
2023/09/26 06:16:20;;;;;;;7.93;7.05;;;11.80;99.90;;;;;;4954746;28;20027;-52
2023/09/26 06:18:47;;;;;;;7.40;6.70;;;11.80;99.90;;;;;;4954647;28;20592;-48
2023/09/26 06:21:14;;;;;;;7.65;6.85;;;11.90;99.90;;;;;;4956723;28;20106;-47
2023/09/26 06:23:40;;;;;;;9.20;6.50;;;12.10;99.90;;;;;;4956525;28;20034;-46
2023/09/26 06:26:07;;;;;;;8.15;6.68;;;12.00;99.90;;;;;;4956375;28;20023;-48
2023/09/26 06:28:33;;;;;;;8.68;6.53;;;12.10;99.90;;;;;;4956159;28;20480;-48
2023/09/26 06:31:09;;;;;;;8.50;6.15;;;12.30;99.90;;;;;;4956118;28;20123;-47
2023/09/26 06:33:35;;;;;;;6.97;5.10;;;12.50;99.90;;;;;;4956531;28;20027;-49
2023/09/26 06:36:01;;;;;;;6.68;4.93;;;12.70;99.90;;;;;;4956320;28;20031;-48
2023/09/26 06:38:28;;;;;;;5.53;4.75;;;13.00;99.90;;;;;;4956238;28;20087;-46
2023/09/26 06:41:01;;;;;;;8.98;5.32;;;13.20;99.90;;;;;;4956245;28;20487;-47
2023/09/26 06:43:27;;;;;;;6.82;4.60;;;13.50;99.90;;;;;;4955795;28;20024;-47
2023/09/26 06:45:53;;;;;;;9.13;4.43;;;13.90;99.90;;;;;;4955139;28;20054;-48
2023/09/26 06:48:19;;;;;;;7.88;4.55;;;14.30;99.90;;;;;;4955783;28;20102;-49
2023/09/26 06:50:44;;;;;;;8.75;3.70;;;15.30;99.90;;;;;;4955677;28;20035;-45
2023/09/26 06:53:10;;;;;;;4.50;3.53;;;15.30;99.90;;;;;;4955537;28;20074;-48
2023/09/26 06:55:39;;;;;;;4.95;4.18;;;15.80;99.90;;;;;;4955774;28;20054;-46
2023/09/26 06:58:05;;;;;;;3.88;3.58;;;16.70;99.90;;;;;;4955813;28;20020;-45
2023/09/26 07:00:31;;;;;;;8.02;4.75;;;17.80;99.90;;;;;;4955718;28;20080;-48
2023/09/26 07:02:56;;;;;;;6.50;4.13;;;18.30;99.90;;;;;;4955422;28;20102;-47
2023/09/26 07:05:23;;;;;;;4.13;3.38;;;18.80;99.90;;;;;;4955275;28;20027;-47
2023/09/26 07:07:48;;;;;;;7.78;3.40;;;19.40;99.90;;;;;;4955532;28;20019;-44
2023/09/26 07:10:14;;;;;;;4.15;3.40;;;19.60;99.90;;;;;;4955430;28;20039;-45
2023/09/26 07:12:40;;;;;;;4.05;3.65;;;20.10;99.90;;;;;;4955206;28;20026;-45
2023/09/26 07:15:07;;;;;;;4.03;3.70;;;20.70;99.90;;;;;;4955186;28;20030;-45
2023/09/26 07:17:33;;;;;;;6.65;3.65;;;21.60;99.90;;;;;;4955515;28;20027;-46
2023/09/26 07:20:00;;;;;;;8.57;3.53;;;21.90;99.90;;;;;;4955045;28;20035;-47
2023/09/26 07:22:26;;;;;;;4.10;3.00;;;22.20;99.90;;;;;;4955146;28;20038;-46
2023/09/26 07:24:51;;;;;;;6.57;3.50;;;22.10;99.70;;;;;;4955381;28;20027;-45
2023/09/26 07:27:17;;;;;;;4.00;3.25;;;22.60;99.70;;;;;;4955865;28;20042;-45
2023/09/26 07:29:47;;;;;;;6.28;3.50;;;23.20;98.40;;;;;;4955230;28;20027;-46
2023/09/26 07:32:14;;;;;;;3.10;2.90;;;23.60;97.70;;;;;;4954552;28;20105;-51
2023/09/26 07:34:41;;;;;;;6.78;3.22;;;23.90;96.90;;;;;;4954927;28;20046;-47
2023/09/26 07:37:07;;;;;;;3.38;3.08;;;23.70;96.50;;;;;;4954897;28;20019;-51
2023/09/26 07:39:32;;;;;;;5.35;3.13;;;23.40;97.00;;;;;;4954831;28;20038;-48
2023/09/26 07:41:58;;;;;;;4.20;3.80;;;22.60;97.70;;;;;;4954763;28;20035;-46
2023/09/26 07:44:24;;;;;;;7.90;3.17;;;21.70;99.00;;;;;;4954724;28;20069;-48
2023/09/26 07:46:49;;;;;;;5.95;3.67;;;20.60;99.90;;;;;;4954646;28;20070;-45
2023/09/26 07:49:15;;;;;;;4.65;3.45;;;19.60;99.90;;;;;;4954674;28;20027;-51
2023/09/26 07:51:41;;;;;;;6.10;4.13;;;18.70;99.90;;;;;;4954739;28;20047;-46
2023/09/26 07:54:06;;;;;;;6.68;4.13;;;18.00;99.90;;;;;;4954453;28;20019;-47
2023/09/26 07:56:32;;;;;;;4.53;3.80;;;17.40;99.90;;;;;;4954508;28;20028;-49
2023/09/26 07:58:57;;;;;;;7.13;3.97;;;16.90;99.90;;;;;;4954594;28;20534;-50
2023/09/26 08:01:25;;;;;;;7.53;4.38;;;16.60;99.90;;;;;;4954776;28;20022;-49
2023/09/26 08:03:50;;;;;;;4.28;3.88;;;16.30;99.90;;;;;;4954587;28;20027;-45
2023/09/26 08:06:16;;;;;;;5.88;4.90;;;16.10;99.90;;;;;;4954475;28;20035;-46
2023/09/26 08:08:42;;;;;;;8.02;4.85;;;15.90;99.90;;;;;;4955247;28;20023;-47
2023/09/26 08:11:09;;;;;;;6.88;4.82;;;15.90;99.90;;;;;;4954717;28;20031;-45
2023/09/26 08:13:36;;;;;;;6.70;4.80;;;15.80;99.90;;;;;;4954520;28;20083;-46
2023/09/26 08:16:02;;;;;;;11.43;5.22;;;15.70;99.90;;;;;;4955129;28;20027;-50
2023/09/26 08:18:28;;;;;;;6.50;5.35;;;15.70;99.90;;;;;;4954613;28;20027;-49
2023/09/26 08:20:55;;;;;;;7.63;5.13;;;15.70;99.90;;;;;;4954198;28;20410;-46
2023/09/26 08:23:21;;;;;;;6.63;5.78;;;15.50;99.90;;;;;;4954386;28;20566;-48
2023/09/26 08:25:47;;;;;;;7.07;5.75;;;15.50;99.90;;;;;;4954714;29;20035;-46
2023/09/26 08:28:13;;;;;;;7.75;6.05;;;15.40;99.90;;;;;;4955054;28;20403;-49
2023/09/26 08:30:38;;;;;;;6.28;5.18;;;15.40;99.90;;;;;;4954593;28;20051;-50
2023/09/26 08:33:04;;;;;;;5.70;5.20;;;15.30;99.90;;;;;;4954772;28;20367;-50
2023/09/26 08:35:32;;;;;;;13.68;6.22;;;15.30;99.90;;;;;;4954378;28;20023;-45
2023/09/26 08:37:58;;;;;;;6.18;5.63;;;15.30;99.90;;;;;;4953464;28;20406;-46
2023/09/26 08:40:25;;;;;;;7.47;6.03;;;15.30;99.90;;;;;;4954470;28;20031;-45
2023/09/26 08:42:52;;;;;;;7.20;5.90;;;15.50;99.90;;;;;;4952816;28;20174;-47
2023/09/26 08:45:19;;;;;;;12.20;6.20;;;15.40;99.90;;;;;;4954312;28;20038;-46
2023/09/26 08:47:44;;;;;;;8.65;6.07;;;15.40;99.90;;;;;;4955021;28;20050;-46
2023/09/26 08:50:10;;;;;;;6.40;5.70;;;15.50;99.90;;;;;;4954085;28;20024;-47
2023/09/26 08:52:36;;;;;;;6.97;6.05;;;15.50;99.90;;;;;;4954038;28;20039;-48
2023/09/26 08:55:03;;;;;;;7.00;5.65;;;15.70;99.90;;;;;;4954019;28;20052;-50
2023/09/26 08:57:30;;;;;;;7.28;4.60;;;16.60;99.90;;;;;;4954134;28;20019;-47
2023/09/26 09:00:00;;;;;;;8.40;4.25;;;18.20;99.90;;;;;;4953951;28;20039;-44
2023/09/26 09:02:26;;;;;;;6.45;4.00;;;20.00;99.90;;;;;;4953975;28;20054;-45
2023/09/26 09:04:52;;;;;;;7.75;3.72;;;21.80;99.90;;;;;;4953471;28;20023;-41
2023/09/26 09:07:17;;;;;;;4.78;3.50;;;23.00;99.90;;;;;;4954075;28;20605;-45
2023/09/26 09:10:07;;;;;;;6.32;3.22;;;24.30;99.90;;;;;;4954070;28;20035;-46
2023/09/26 09:12:37;;;;;;;3.65;2.95;;;25.30;97.80;;;;;;4953917;28;20492;-46
2023/09/26 09:15:15;;;;;;;5.18;3.17;;;26.00;96.50;;;;;;4953610;28;20031;-46
2023/09/26 09:17:45;;;;;;;4.97;3.08;;;26.30;95.10;;;;;;4953811;28;20028;-47
2023/09/26 09:20:16;;;;;;;7.32;3.35;;;26.50;95.10;;;;;;4953519;28;20050;-50
2023/09/26 09:22:48;;;;;;;7.82;3.40;;;26.80;94.20;;;;;;4953706;28;20039;-47
2023/09/26 09:25:15;;;;;;;5.75;2.92;;;27.20;94.00;;;;;;4953733;28;20514;-46
2023/09/26 09:27:43;;;;;;;4.50;2.88;;;27.60;93.10;;;;;;4953797;28;20058;-44
2023/09/26 09:30:12;;;;;;;7.80;3.40;;;28.00;92.40;;;;;;4953710;28;20078;-45
2023/09/26 09:32:44;;;;;;;8.65;3.25;;;27.70;92.40;;;;;;4952172;28;20511;-45
2023/09/26 09:35:11;;;;;;;5.03;3.28;;;27.90;92.60;;;;;;4952106;28;20484;-48
2023/09/26 09:37:37;;;;;;;3.42;3.15;;;27.70;92.30;;;;;;4953288;28;20059;-49
2023/09/26 09:40:05;;;;;;;4.82;3.42;;;27.40;92.30;;;;;;4953405;28;20077;-46
2023/09/26 09:42:30;;;;;;;3.40;3.10;;;26.80;93.00;;;;;;4953363;28;20503;-43
2023/09/26 09:44:56;;;;;;;7.95;3.17;;;26.30;93.60;;;;;;4951596;28;20046;-44
2023/09/26 09:47:23;;;;;;;3.53;3.03;;;26.10;94.10;;;;;;4953851;28;20456;-46
2023/09/26 09:49:51;;;;;;;5.13;3.08;;;25.70;94.50;;;;;;4953391;28;20062;-46
2023/09/26 09:52:19;;;;;;;6.53;3.50;;;25.30;94.70;;;;;;4953113;28;20032;-45
2023/09/26 09:54:45;;;;;;;5.10;3.08;;;25.20;95.30;;;;;;4952172;28;20127;-42
2023/09/26 09:57:14;;;;;;;5.50;3.50;;;24.80;95.80;;;;;;4955728;28;20028;-46
2023/09/26 09:59:42;;;;;;;10.18;3.85;;;24.60;96.10;;;;;;4955677;28;20126;-46
2023/09/26 10:02:10;;;;;;;6.60;3.47;;;24.30;97.00;;;;;;4956629;28;20027;-45
2023/09/26 10:04:39;;;;;;;3.53;3.25;;;24.50;96.90;;;;;;4956662;28;20056;-44
2023/09/26 10:07:05;;;;;;;5.07;3.92;;;24.50;97.00;;;;;;4956742;28;20027;-46
2023/09/26 10:09:32;;;;;;;9.93;3.70;;;24.60;97.10;;;;;;4956918;28;20028;-48
2023/09/26 10:11:59;;;;;;;7.78;3.85;;;24.40;97.30;;;;;;4956708;28;20395;-44
2023/09/26 10:14:27;;;;;;;4.68;3.97;;;24.30;97.70;;;;;;4956533;28;20023;-48
2023/09/26 10:16:55;;;;;;;6.57;4.03;;;24.10;97.80;;;;;;4956489;28;20550;-46
2023/09/26 10:19:23;;;;;;;3.53;3.22;;;24.00;98.30;;;;;;4956396;28;20079;-46
2023/09/26 10:21:50;;;;;;;4.00;3.55;;;24.00;98.30;;;;;;4956699;28;20022;-49
2023/09/26 10:24:18;;;;;;;7.13;4.28;;;23.80;99.30;;;;;;4956052;28;20027;-47
2023/09/26 10:26:45;;;;;;;5.28;4.05;;;23.70;99.20;;;;;;4956543;28;20038;-44
2023/09/26 10:29:17;;;;;;;8.57;3.58;;;23.60;99.70;;;;;;4956479;28;20450;-44
2023/09/26 10:31:53;;;;;;;7.53;3.50;;;23.50;99.80;;;;;;4956285;28;20110;-48
2023/09/26 10:34:21;;;;;;;3.60;3.20;;;23.20;99.90;;;;;;4956236;28;20031;-46
2023/09/26 10:36:46;;;;;;;3.70;3.33;;;23.20;99.90;;;;;;4956254;28;20331;-45
2023/09/26 10:39:12;;;;;;;3.92;3.58;;;22.90;99.90;;;;;;4961587;28;20061;-45
2023/09/26 10:41:39;;;;;;;4.30;2.53;;;22.80;99.90;;;;;;4976056;28;20039;-46
2023/09/26 10:44:04;;;;;;;5.03;3.00;;;22.70;99.90;;;;;;4975151;28;20026;-45
2023/09/26 10:46:31;;;;;;;3.78;3.47;;;22.70;99.90;;;;;;4975513;28;20142;-45
2023/09/26 10:49:00;;;;;;;5.32;2.97;;;22.60;99.90;;;;;;4975201;28;20031;-45
2023/09/26 10:51:26;;;;;;;3.17;2.88;;;22.60;99.90;;;;;;4972809;28;20031;-50
2023/09/26 10:53:51;;;;;;;4.03;2.80;;;22.60;99.90;;;;;;4973151;28;20077;-49
2023/09/26 10:56:18;;;;;;;4.20;3.75;;;22.60;99.90;;;;;;4973171;28;20044;-48
2023/09/26 10:58:46;;;;;;;6.55;3.58;;;22.60;99.90;;;;;;4974570;28;20375;-47
2023/09/26 11:01:12;;;;;;;6.90;3.40;;;22.50;99.90;;;;;;4975778;28;20437;-50
2023/09/26 11:03:37;;;;;;;3.92;3.17;;;22.40;99.90;;;;;;4975563;28;20136;-48
2023/09/26 11:06:04;;;;;;;6.90;4.03;;;22.20;99.90;;;;;;4974705;28;20138;-48
2023/09/26 11:08:30;;;;;;;4.40;3.97;;;22.10;99.90;;;;;;4974767;28;20023;-45
2023/09/26 11:10:57;;;;;;;5.32;3.63;;;22.10;99.90;;;;;;4975296;28;20170;-46
2023/09/26 11:13:23;;;;;;;4.30;3.10;;;22.00;99.90;;;;;;4974634;28;20367;-47
2023/09/26 11:15:53;;;;;;;3.22;2.90;;;21.90;99.90;;;;;;4975068;28;20034;-47
2023/09/26 11:18:18;;;;;;;24.08;16.30;;;21.80;99.90;;;;;;4975329;28;20026;-49
2023/09/26 11:20:44;;;;;;;13.80;11.38;;;21.80;99.90;;;;;;4974767;28;20392;-46
2023/09/26 11:23:09;;;;;;;6.35;3.63;;;21.80;99.90;;;;;;4975407;28;20031;-49
2023/09/26 11:25:36;;;;;;;4.22;2.78;;;21.70;99.90;;;;;;4975217;28;20031;-48
2023/09/26 11:28:02;;;;;;;7.18;3.60;;;21.70;99.90;;;;;;4975943;28;20455;-47
2023/09/26 11:30:28;;;;;;;8.55;3.88;;;21.70;99.90;;;;;;4976407;28;20035;-46
2023/09/26 11:32:54;;;;;;;4.15;2.95;;;21.60;99.90;;;;;;4975730;28;20027;-43
2023/09/26 11:35:22;;;;;;;6.97;3.40;;;21.50;99.90;;;;;;4974560;28;20031;-43
2023/09/26 11:37:53;;;;;;;7.60;2.72;;;21.50;99.90;;;;;;4975331;28;20027;-47
2023/09/26 11:40:24;;;;;;;7.13;3.03;;;21.50;99.90;;;;;;4975538;28;20090;-51
2023/09/26 11:42:55;;;;;;;3.75;3.45;;;21.40;99.90;;;;;;4975496;28;20023;-42
2023/09/26 11:45:23;;;;;;;5.90;3.10;;;21.50;99.90;;;;;;4973737;28;20431;-44
2023/09/26 11:47:52;;;;;;;4.88;3.30;;;21.40;99.90;;;;;;4974345;28;20134;-43
2023/09/26 11:50:18;;;;;;;5.10;3.55;;;21.40;99.90;;;;;;4974152;28;20035;-47
2023/09/26 11:52:44;;;;;;;4.97;2.92;;;21.40;99.90;;;;;;4972741;28;20023;-48
2023/09/26 11:55:13;;;;;;;3.55;3.25;;;21.40;99.90;;;;;;4973678;28;20150;-48
2023/09/26 11:57:38;;;;;;;5.53;3.17;;;21.40;99.90;;;;;;4974274;28;20573;-46
2023/09/26 12:00:11;;;;;;;6.50;3.60;;;21.30;99.90;;;;;;4975364;28;20034;-51
2023/09/26 12:02:38;;;;;;;4.10;3.80;;;21.30;99.90;;;;;;4974092;28;20062;-45
2023/09/26 12:05:06;;;;;;;7.05;3.30;;;21.20;99.90;;;;;;4975403;28;20105;-49
2023/09/26 12:07:33;;;;;;;4.57;4.18;;;21.20;99.90;;;;;;4974164;28;20498;-47
2023/09/26 12:09:58;;;;;;;4.05;3.28;;;21.20;99.90;;;;;;4975779;28;20047;-50
2023/09/26 12:12:24;;;;;;;4.30;3.20;;;21.10;99.90;;;;;;4974561;28;20027;-44
2023/09/26 12:14:51;;;;;;;4.45;3.42;;;21.10;99.90;;;;;;4972740;28;20417;-45
2023/09/26 12:17:17;;;;;;;6.55;3.55;;;21.20;99.90;;;;;;4973909;28;20035;-45
2023/09/26 12:19:42;;;;;;;5.22;3.50;;;21.30;99.90;;;;;;4974171;28;20563;-46
2023/09/26 12:22:08;;;;;;;3.97;3.50;;;21.30;99.90;;;;;;4973597;28;20023;-45
2023/09/26 12:24:33;;;;;;;7.30;3.95;;;21.30;99.90;;;;;;4973378;28;20026;-43
2023/09/26 12:27:00;;;;;;;109.55;90.82;;;21.30;99.90;;;;;;4975221;28;20371;-47
2023/09/26 12:29:25;;;;;;;10.50;5.57;;;21.40;99.90;;;;;;4975533;28;20407;-42
2023/09/26 12:31:51;;;;;;;14.95;8.30;;;21.40;99.90;;;;;;4976580;28;20121;-47
2023/09/26 12:34:16;;;;;;;6.82;4.75;;;21.40;99.90;;;;;;4975067;28;20027;-44
2023/09/26 12:36:42;;;;;;;10.75;3.97;;;21.30;99.90;;;;;;4973619;28;20493;-43
2023/09/26 12:39:07;;;;;;;8.90;3.55;;;21.40;99.90;;;;;;4972938;28;20035;-44
2023/09/26 12:41:33;;;;;;;4.35;3.80;;;21.50;99.90;;;;;;4973059;28;20101;-43